<?xml version="1.0" encoding="utf-8"?>
<gpx xmlns:xsi="http://www.w3.org/2001/XMLSchema-instance" xmlns:xsd="http://www.w3.org/2001/XMLSchema" version="1.1" creator="Shapelink.com" xmlns="http://www.topografix.com/GPX/1/1" xmlns:gpxtpx="http://www.garmin.com/xmlschemas/TrackPointExtension/v1">
  <metadata>
    <name>Övrigt 3.40 km, 2019-07-30</name>
    <desc></desc>
    <author><name>Marian Moron</name></author> 
    <time>2019-07-30T15:47:16Z</time>
  </metadata>
  <trk>
    <name>Övrigt 3.40 km, 2019-07-30</name>
    <trkseg>
      <trkpt lat="54.58789320842" lon="16.856645887205">
        <ele>12.6</ele>
        <time>2019-07-30T15:47:16Z</time>
      </trkpt>
      <trkpt lat="54.58784962254" lon="16.856671535819">
        <ele>12.2</ele>
        <time>2019-07-30T15:47:20Z</time>
      </trkpt>
      <trkpt lat="54.587747447179" lon="16.856693496397">
        <ele>5.8</ele>
        <time>2019-07-30T15:48:14Z</time>
      </trkpt>
      <trkpt lat="54.587989013537" lon="16.856679750081">
        <ele>4.6</ele>
        <time>2019-07-30T15:48:58Z</time>
      </trkpt>
      <trkpt lat="54.587705286222" lon="16.856815872137">
        <ele>3.4</ele>
        <time>2019-07-30T15:49:24Z</time>
      </trkpt>
      <trkpt lat="54.587781142417" lon="16.856671954914">
        <ele>3.2</ele>
        <time>2019-07-30T15:51:12Z</time>
      </trkpt>
      <trkpt lat="54.587858255897" lon="16.856578245272">
        <ele>3.4</ele>
        <time>2019-07-30T15:52:18Z</time>
      </trkpt>
      <trkpt lat="54.587701933462" lon="16.856676900235">
        <ele>1.2</ele>
        <time>2019-07-30T15:54:13Z</time>
      </trkpt>
      <trkpt lat="54.587739903469" lon="16.856687712886">
        <ele>0.6</ele>
        <time>2019-07-30T15:54:17Z</time>
      </trkpt>
      <trkpt lat="54.587825734125" lon="16.856741608503">
        <ele>0.8</ele>
        <time>2019-07-30T15:54:28Z</time>
      </trkpt>
      <trkpt lat="54.588069563596" lon="16.856591404855">
        <ele>1.4</ele>
        <time>2019-07-30T15:54:56Z</time>
      </trkpt>
      <trkpt lat="54.588083058455" lon="16.856590566665">
        <ele>0</ele>
        <time>2019-07-30T15:54:59Z</time>
      </trkpt>
      <trkpt lat="54.588083058455" lon="16.856590566665">
        <ele>0</ele>
        <time>2019-07-30T15:55:00Z</time>
      </trkpt>
      <trkpt lat="54.588112143648" lon="16.856470873133">
        <ele>0.6</ele>
        <time>2019-07-30T15:55:14Z</time>
      </trkpt>
      <trkpt lat="54.588126560516" lon="16.856389233427">
        <ele>0.8</ele>
        <time>2019-07-30T15:55:21Z</time>
      </trkpt>
      <trkpt lat="54.588149275465" lon="16.856308348092">
        <ele>0</ele>
        <time>2019-07-30T15:55:27Z</time>
      </trkpt>
      <trkpt lat="54.588173331518" lon="16.856276915967">
        <ele>0</ele>
        <time>2019-07-30T15:55:31Z</time>
      </trkpt>
      <trkpt lat="54.588218342321" lon="16.855977598318">
        <ele>0</ele>
        <time>2019-07-30T15:56:11Z</time>
      </trkpt>
      <trkpt lat="54.588199315408" lon="16.855802584246">
        <ele>0.2</ele>
        <time>2019-07-30T15:56:22Z</time>
      </trkpt>
      <trkpt lat="54.588202584349" lon="16.855711892088">
        <ele>0.2</ele>
        <time>2019-07-30T15:56:28Z</time>
      </trkpt>
      <trkpt lat="54.588209289869" lon="16.855662774154">
        <ele>0</ele>
        <time>2019-07-30T15:56:32Z</time>
      </trkpt>
      <trkpt lat="54.588242314555" lon="16.855611309288">
        <ele>0</ele>
        <time>2019-07-30T15:56:37Z</time>
      </trkpt>
      <trkpt lat="54.588328564306" lon="16.855475773965">
        <ele>0</ele>
        <time>2019-07-30T15:57:08Z</time>
      </trkpt>
      <trkpt lat="54.588384136303" lon="16.855474432861">
        <ele>0</ele>
        <time>2019-07-30T15:57:15Z</time>
      </trkpt>
      <trkpt lat="54.588411880392" lon="16.855469906635">
        <ele>0</ele>
        <time>2019-07-30T15:57:44Z</time>
      </trkpt>
      <trkpt lat="54.588399223723" lon="16.855491531937">
        <ele>0</ele>
        <time>2019-07-30T15:57:48Z</time>
      </trkpt>
      <trkpt lat="54.58836762396" lon="16.855498321276">
        <ele>0</ele>
        <time>2019-07-30T15:57:51Z</time>
      </trkpt>
      <trkpt lat="54.588376089679" lon="16.855476109241">
        <ele>0</ele>
        <time>2019-07-30T15:58:41Z</time>
      </trkpt>
      <trkpt lat="54.588384806855" lon="16.855477534164">
        <ele>0</ele>
        <time>2019-07-30T15:58:46Z</time>
      </trkpt>
      <trkpt lat="54.58837097672" lon="16.855465715685">
        <ele>0</ele>
        <time>2019-07-30T15:58:53Z</time>
      </trkpt>
      <trkpt lat="54.588390925642" lon="16.855461440916">
        <ele>0</ele>
        <time>2019-07-30T15:58:57Z</time>
      </trkpt>
      <trkpt lat="54.588515732133" lon="16.855482982399">
        <ele>0</ele>
        <time>2019-07-30T16:00:17Z</time>
      </trkpt>
      <trkpt lat="54.588461752697" lon="16.855490274652">
        <ele>0</ele>
        <time>2019-07-30T16:00:22Z</time>
      </trkpt>
      <trkpt lat="54.588455214815" lon="16.855493375955">
        <ele>0</ele>
        <time>2019-07-30T16:00:55Z</time>
      </trkpt>
      <trkpt lat="54.588541213109" lon="16.855443252193">
        <ele>0</ele>
        <time>2019-07-30T16:01:11Z</time>
      </trkpt>
      <trkpt lat="54.588600892237" lon="16.85539824139">
        <ele>0</ele>
        <time>2019-07-30T16:01:21Z</time>
      </trkpt>
      <trkpt lat="54.588619500055" lon="16.855382231961">
        <ele>0</ele>
        <time>2019-07-30T16:01:24Z</time>
      </trkpt>
      <trkpt lat="54.588613800363" lon="16.85543679813">
        <ele>0</ele>
        <time>2019-07-30T16:01:53Z</time>
      </trkpt>
      <trkpt lat="54.588675072052" lon="16.855443168374">
        <ele>0</ele>
        <time>2019-07-30T16:03:16Z</time>
      </trkpt>
      <trkpt lat="54.588759142509" lon="16.855477701802">
        <ele>0</ele>
        <time>2019-07-30T16:03:26Z</time>
      </trkpt>
      <trkpt lat="54.588776157766" lon="16.855490609928">
        <ele>0</ele>
        <time>2019-07-30T16:03:28Z</time>
      </trkpt>
      <trkpt lat="54.588798118344" lon="16.855479042906">
        <ele>0</ele>
        <time>2019-07-30T16:03:30Z</time>
      </trkpt>
      <trkpt lat="54.588936252056" lon="16.855443838926">
        <ele>0</ele>
        <time>2019-07-30T16:03:45Z</time>
      </trkpt>
      <trkpt lat="54.588982268687" lon="16.855418777045">
        <ele>0</ele>
        <time>2019-07-30T16:04:14Z</time>
      </trkpt>
      <trkpt lat="54.589019484323" lon="16.855441324356">
        <ele>0</ele>
        <time>2019-07-30T16:05:22Z</time>
      </trkpt>
      <trkpt lat="54.589015628649" lon="16.855512654325">
        <ele>0</ele>
        <time>2019-07-30T16:05:31Z</time>
      </trkpt>
      <trkpt lat="54.588988555112" lon="16.855480970743">
        <ele>0</ele>
        <time>2019-07-30T16:05:35Z</time>
      </trkpt>
      <trkpt lat="54.58898536999" lon="16.855449873894">
        <ele>0</ele>
        <time>2019-07-30T16:05:37Z</time>
      </trkpt>
      <trkpt lat="54.588985537628" lon="16.855417184484">
        <ele>0</ele>
        <time>2019-07-30T16:05:39Z</time>
      </trkpt>
      <trkpt lat="54.589000708867" lon="16.855256000547">
        <ele>0</ele>
        <time>2019-07-30T16:05:51Z</time>
      </trkpt>
      <trkpt lat="54.589010348052" lon="16.855299921703">
        <ele>0</ele>
        <time>2019-07-30T16:06:02Z</time>
      </trkpt>
      <trkpt lat="54.589023842911" lon="16.855368401826">
        <ele>0</ele>
        <time>2019-07-30T16:06:06Z</time>
      </trkpt>
      <trkpt lat="54.589022753264" lon="16.85540075596">
        <ele>0</ele>
        <time>2019-07-30T16:06:08Z</time>
      </trkpt>
      <trkpt lat="54.588963912326" lon="16.855515085076">
        <ele>0</ele>
        <time>2019-07-30T16:06:20Z</time>
      </trkpt>
      <trkpt lat="54.588857629834" lon="16.855566298485">
        <ele>0</ele>
        <time>2019-07-30T16:06:29Z</time>
      </trkpt>
      <trkpt lat="54.588778420879" lon="16.855514498343">
        <ele>0</ele>
        <time>2019-07-30T16:06:37Z</time>
      </trkpt>
      <trkpt lat="54.588711030403" lon="16.855495555249">
        <ele>0</ele>
        <time>2019-07-30T16:06:45Z</time>
      </trkpt>
      <trkpt lat="54.588648836705" lon="16.855510810307">
        <ele>0</ele>
        <time>2019-07-30T16:06:51Z</time>
      </trkpt>
      <trkpt lat="54.588630731801" lon="16.855502093131">
        <ele>0</ele>
        <time>2019-07-30T16:07:02Z</time>
      </trkpt>
      <trkpt lat="54.5886408739" lon="16.855463955486">
        <ele>0</ele>
        <time>2019-07-30T16:07:28Z</time>
      </trkpt>
      <trkpt lat="54.588614303277" lon="16.855435037931">
        <ele>0</ele>
        <time>2019-07-30T16:07:42Z</time>
      </trkpt>
      <trkpt lat="54.588586810645" lon="16.85542757804">
        <ele>0</ele>
        <time>2019-07-30T16:07:56Z</time>
      </trkpt>
      <trkpt lat="54.588619164779" lon="16.855522544967">
        <ele>0</ele>
        <time>2019-07-30T16:37:03Z</time>
      </trkpt>
      <trkpt lat="54.588550433199" lon="16.855519695121">
        <ele>0</ele>
        <time>2019-07-30T16:39:48Z</time>
      </trkpt>
      <trkpt lat="54.588380364448" lon="16.855505445891">
        <ele>6.2</ele>
        <time>2019-07-30T16:42:50Z</time>
      </trkpt>
      <trkpt lat="54.588362343363" lon="16.855513576334">
        <ele>1.6</ele>
        <time>2019-07-30T16:44:59Z</time>
      </trkpt>
      <trkpt lat="54.588199063951" lon="16.855424057642">
        <ele>5.4</ele>
        <time>2019-07-30T16:45:28Z</time>
      </trkpt>
      <trkpt lat="54.587952803729" lon="16.854872109527">
        <ele>5.2</ele>
        <time>2019-07-30T16:46:43Z</time>
      </trkpt>
      <trkpt lat="54.587915504274" lon="16.854763480103">
        <ele>4.4</ele>
        <time>2019-07-30T16:46:51Z</time>
      </trkpt>
      <trkpt lat="54.587780220408" lon="16.854360059256">
        <ele>2.4</ele>
        <time>2019-07-30T16:47:59Z</time>
      </trkpt>
      <trkpt lat="54.587910223677" lon="16.85433625466">
        <ele>4.8</ele>
        <time>2019-07-30T16:49:31Z</time>
      </trkpt>
      <trkpt lat="54.587995299962" lon="16.854473382544">
        <ele>9.2</ele>
        <time>2019-07-30T16:50:08Z</time>
      </trkpt>
      <trkpt lat="54.587938386861" lon="16.854579245941">
        <ele>16.4</ele>
        <time>2019-07-30T16:54:40Z</time>
      </trkpt>
      <trkpt lat="54.587978871438" lon="16.854512526017">
        <ele>22.4</ele>
        <time>2019-07-30T16:57:18Z</time>
      </trkpt>
      <trkpt lat="54.587919527586" lon="16.854439938763">
        <ele>9.8</ele>
        <time>2019-07-30T16:59:26Z</time>
      </trkpt>
      <trkpt lat="54.587884994158" lon="16.854335332651">
        <ele>7.8</ele>
        <time>2019-07-30T16:59:45Z</time>
      </trkpt>
      <trkpt lat="54.587626664" lon="16.854008857646">
        <ele>4.8</ele>
        <time>2019-07-30T17:01:14Z</time>
      </trkpt>
      <trkpt lat="54.587671004251" lon="16.85391045414">
        <ele>4.6</ele>
        <time>2019-07-30T17:01:25Z</time>
      </trkpt>
      <trkpt lat="54.587649546587" lon="16.853970552363">
        <ele>4.2</ele>
        <time>2019-07-30T17:02:59Z</time>
      </trkpt>
      <trkpt lat="54.587455002688" lon="16.854030902043">
        <ele>1.6</ele>
        <time>2019-07-30T17:03:42Z</time>
      </trkpt>
      <trkpt lat="54.587428264427" lon="16.854029058025">
        <ele>1.8</ele>
        <time>2019-07-30T17:03:46Z</time>
      </trkpt>
      <trkpt lat="54.58728971162" lon="16.853962170463">
        <ele>5.4</ele>
        <time>2019-07-30T17:04:06Z</time>
      </trkpt>
      <trkpt lat="54.587241850971" lon="16.853943897921">
        <ele>7</ele>
        <time>2019-07-30T17:04:12Z</time>
      </trkpt>
      <trkpt lat="54.587036662059" lon="16.853965523223">
        <ele>1.8</ele>
        <time>2019-07-30T17:04:58Z</time>
      </trkpt>
      <trkpt lat="54.586928870825" lon="16.853982370842">
        <ele>2.2</ele>
        <time>2019-07-30T17:05:24Z</time>
      </trkpt>
      <trkpt lat="54.586795682434" lon="16.853929900148">
        <ele>1</ele>
        <time>2019-07-30T17:05:45Z</time>
      </trkpt>
      <trkpt lat="54.586696859833" lon="16.853905089724">
        <ele>1.2</ele>
        <time>2019-07-30T17:05:59Z</time>
      </trkpt>
      <trkpt lat="54.586550176583" lon="16.85393979079">
        <ele>2.2</ele>
        <time>2019-07-30T17:06:32Z</time>
      </trkpt>
      <trkpt lat="54.586475074759" lon="16.853924451913">
        <ele>1.6</ele>
        <time>2019-07-30T17:06:42Z</time>
      </trkpt>
      <trkpt lat="54.586290421502" lon="16.853923948999">
        <ele>5.6</ele>
        <time>2019-07-30T17:07:53Z</time>
      </trkpt>
      <trkpt lat="54.586292014063" lon="16.853862174396">
        <ele>4.4</ele>
        <time>2019-07-30T17:08:15Z</time>
      </trkpt>
      <trkpt lat="54.586279776489" lon="16.853927972311">
        <ele>4.4</ele>
        <time>2019-07-30T17:08:59Z</time>
      </trkpt>
      <trkpt lat="54.586377341805" lon="16.853890589037">
        <ele>3.6</ele>
        <time>2019-07-30T17:09:44Z</time>
      </trkpt>
      <trkpt lat="54.586375581606" lon="16.853834681764">
        <ele>3</ele>
        <time>2019-07-30T17:09:48Z</time>
      </trkpt>
      <trkpt lat="54.586382957678" lon="16.853779864138">
        <ele>0.8</ele>
        <time>2019-07-30T17:10:01Z</time>
      </trkpt>
      <trkpt lat="54.586310118967" lon="16.853908358665">
        <ele>0</ele>
        <time>2019-07-30T17:10:38Z</time>
      </trkpt>
      <trkpt lat="54.586292600796" lon="16.853897629833">
        <ele>0</ele>
        <time>2019-07-30T17:11:18Z</time>
      </trkpt>
      <trkpt lat="54.58626628163" lon="16.853797633766">
        <ele>0.6</ele>
        <time>2019-07-30T17:11:27Z</time>
      </trkpt>
      <trkpt lat="54.586248931097" lon="16.853783552174">
        <ele>1.4</ele>
        <time>2019-07-30T17:12:14Z</time>
      </trkpt>
      <trkpt lat="54.586165615011" lon="16.853807189132">
        <ele>0</ele>
        <time>2019-07-30T17:12:44Z</time>
      </trkpt>
      <trkpt lat="54.586132003592" lon="16.853728650729">
        <ele>0</ele>
        <time>2019-07-30T17:12:56Z</time>
      </trkpt>
      <trkpt lat="54.586071653912" lon="16.853665199746">
        <ele>0</ele>
        <time>2019-07-30T17:13:16Z</time>
      </trkpt>
      <trkpt lat="54.585999569572" lon="16.853642987711">
        <ele>0</ele>
        <time>2019-07-30T17:13:24Z</time>
      </trkpt>
      <trkpt lat="54.585967466895" lon="16.853661679348">
        <ele>0</ele>
        <time>2019-07-30T17:13:32Z</time>
      </trkpt>
      <trkpt lat="54.585956235149" lon="16.853787072572">
        <ele>0</ele>
        <time>2019-07-30T17:13:43Z</time>
      </trkpt>
      <trkpt lat="54.585900411695" lon="16.854549825472">
        <ele>4</ele>
        <time>2019-07-30T17:14:51Z</time>
      </trkpt>
      <trkpt lat="54.585888760854" lon="16.854739507869">
        <ele>5.4</ele>
        <time>2019-07-30T17:15:06Z</time>
      </trkpt>
      <trkpt lat="54.585878954031" lon="16.854808574725">
        <ele>6.2</ele>
        <time>2019-07-30T17:15:11Z</time>
      </trkpt>
      <trkpt lat="54.585787507502" lon="16.855169666977">
        <ele>8.2</ele>
        <time>2019-07-30T17:15:59Z</time>
      </trkpt>
      <trkpt lat="54.585359611507" lon="16.855197411066">
        <ele>0</ele>
        <time>2019-07-30T17:17:12Z</time>
      </trkpt>
      <trkpt lat="54.585314852161" lon="16.855087775814">
        <ele>6.6</ele>
        <time>2019-07-30T17:19:04Z</time>
      </trkpt>
      <trkpt lat="54.585358102765" lon="16.855071514928">
        <ele>9.4</ele>
        <time>2019-07-30T17:20:36Z</time>
      </trkpt>
      <trkpt lat="54.585358270403" lon="16.855085680339">
        <ele>8.4</ele>
        <time>2019-07-30T17:20:40Z</time>
      </trkpt>
      <trkpt lat="54.585341255146" lon="16.855120716681">
        <ele>0.6</ele>
        <time>2019-07-30T17:22:13Z</time>
      </trkpt>
      <trkpt lat="54.585426163793" lon="16.855137648119">
        <ele>1.8</ele>
        <time>2019-07-30T17:23:35Z</time>
      </trkpt>
      <trkpt lat="54.585861268222" lon="16.855199255084">
        <ele>0</ele>
        <time>2019-07-30T17:25:05Z</time>
      </trkpt>
      <trkpt lat="54.585999485753" lon="16.855241248403">
        <ele>2</ele>
        <time>2019-07-30T17:25:29Z</time>
      </trkpt>
      <trkpt lat="54.586027313661" lon="16.855242505688">
        <ele>2.2</ele>
        <time>2019-07-30T17:25:35Z</time>
      </trkpt>
      <trkpt lat="54.586311711528" lon="16.855288187043">
        <ele>5.2</ele>
        <time>2019-07-30T17:26:19Z</time>
      </trkpt>
      <trkpt lat="54.586452695086" lon="16.855145191829">
        <ele>6</ele>
        <time>2019-07-30T17:26:39Z</time>
      </trkpt>
      <trkpt lat="54.586414222165" lon="16.85454328759">
        <ele>0</ele>
        <time>2019-07-30T17:27:35Z</time>
      </trkpt>
      <trkpt lat="54.5865873084" lon="16.854269534736">
        <ele>4</ele>
        <time>2019-07-30T17:28:10Z</time>
      </trkpt>
      <trkpt lat="54.586736590039" lon="16.854161659683">
        <ele>4.2</ele>
        <time>2019-07-30T17:28:31Z</time>
      </trkpt>
      <trkpt lat="54.586764501766" lon="16.854171047411">
        <ele>3</ele>
        <time>2019-07-30T17:28:34Z</time>
      </trkpt>
      <trkpt lat="54.586817894469" lon="16.854169873945">
        <ele>2</ele>
        <time>2019-07-30T17:28:40Z</time>
      </trkpt>
      <trkpt lat="54.586845135644" lon="16.854167024099">
        <ele>1</ele>
        <time>2019-07-30T17:28:43Z</time>
      </trkpt>
      <trkpt lat="54.586935241069" lon="16.854165180081">
        <ele>1</ele>
        <time>2019-07-30T17:28:56Z</time>
      </trkpt>
      <trkpt lat="54.586995674568" lon="16.854165180081">
        <ele>0.8</ele>
        <time>2019-07-30T17:29:04Z</time>
      </trkpt>
      <trkpt lat="54.587156271772" lon="16.854165850633">
        <ele>1.4</ele>
        <time>2019-07-30T17:29:30Z</time>
      </trkpt>
      <trkpt lat="54.587336147346" lon="16.854145314978">
        <ele>0</ele>
        <time>2019-07-30T17:29:53Z</time>
      </trkpt>
      <trkpt lat="54.587483082053" lon="16.85414430915">
        <ele>1.6</ele>
        <time>2019-07-30T17:30:11Z</time>
      </trkpt>
      <trkpt lat="54.587499678215" lon="16.854140788752">
        <ele>0.8</ele>
        <time>2019-07-30T17:30:16Z</time>
      </trkpt>
      <trkpt lat="54.58752775758" lon="16.85415352924">
        <ele>0.4</ele>
        <time>2019-07-30T17:30:20Z</time>
      </trkpt>
      <trkpt lat="54.587548796149" lon="16.854163336063">
        <ele>0.4</ele>
        <time>2019-07-30T17:30:23Z</time>
      </trkpt>
      <trkpt lat="54.587565727587" lon="16.854173981076">
        <ele>0</ele>
        <time>2019-07-30T17:30:26Z</time>
      </trkpt>
      <trkpt lat="54.587691959001" lon="16.854242712656">
        <ele>0</ele>
        <time>2019-07-30T17:30:45Z</time>
      </trkpt>
      <trkpt lat="54.587714003398" lon="16.854263751225">
        <ele>0</ele>
        <time>2019-07-30T17:30:48Z</time>
      </trkpt>
      <trkpt lat="54.587806455755" lon="16.854446728102">
        <ele>0</ele>
        <time>2019-07-30T17:31:13Z</time>
      </trkpt>
      <trkpt lat="54.587857501526" lon="16.854659796">
        <ele>3</ele>
        <time>2019-07-30T17:31:42Z</time>
      </trkpt>
      <trkpt lat="54.587889352746" lon="16.854720397137">
        <ele>3.6</ele>
        <time>2019-07-30T17:31:49Z</time>
      </trkpt>
      <trkpt lat="54.588111054001" lon="16.855267819026">
        <ele>7.8</ele>
        <time>2019-07-30T17:32:47Z</time>
      </trkpt>
      <trkpt lat="54.588113820028" lon="16.855322971928">
        <ele>8.2</ele>
        <time>2019-07-30T17:32:51Z</time>
      </trkpt>
      <trkpt lat="54.588113317114" lon="16.855454232482">
        <ele>8.2</ele>
        <time>2019-07-30T17:33:01Z</time>
      </trkpt>
      <trkpt lat="54.588126895792" lon="16.855531932695">
        <ele>8.6</ele>
        <time>2019-07-30T17:33:09Z</time>
      </trkpt>
      <trkpt lat="54.588168218559" lon="16.856054208884">
        <ele>6.4</ele>
        <time>2019-07-30T17:33:49Z</time>
      </trkpt>
      <trkpt lat="54.588169140568" lon="16.856261996185">
        <ele>5</ele>
        <time>2019-07-30T17:34:05Z</time>
      </trkpt>
      <trkpt lat="54.588163859971" lon="16.856333745249">
        <ele>4.8</ele>
        <time>2019-07-30T17:34:10Z</time>
      </trkpt>
      <trkpt lat="54.588152963501" lon="16.856401471001">
        <ele>4</ele>
        <time>2019-07-30T17:34:15Z</time>
      </trkpt>
      <trkpt lat="54.588117172788" lon="16.856604899714">
        <ele>2</ele>
        <time>2019-07-30T17:34:31Z</time>
      </trkpt>
      <trkpt lat="54.588122704842" lon="16.85704779931">
        <ele>5.4</ele>
        <time>2019-07-30T17:35:15Z</time>
      </trkpt>
      <trkpt lat="54.588122285747" lon="16.857097755434">
        <ele>4.8</ele>
        <time>2019-07-30T17:35:19Z</time>
      </trkpt>
      <trkpt lat="54.588140055375" lon="16.857865956569">
        <ele>7</ele>
        <time>2019-07-30T17:36:23Z</time>
      </trkpt>
      <trkpt lat="54.588153214958" lon="16.857943740601">
        <ele>8.2</ele>
        <time>2019-07-30T17:36:50Z</time>
      </trkpt>
      <trkpt lat="54.588148437275" lon="16.857957570736">
        <ele>8.2</ele>
        <time>2019-07-30T17:37:20Z</time>
      </trkpt>
      <trkpt lat="54.588173331518" lon="16.858224031337">
        <ele>8.6</ele>
        <time>2019-07-30T17:37:51Z</time>
      </trkpt>
      <trkpt lat="54.588167799464" lon="16.858617226266">
        <ele>4.4</ele>
        <time>2019-07-30T17:38:25Z</time>
      </trkpt>
      <trkpt lat="54.588172744785" lon="16.85866299144">
        <ele>6</ele>
        <time>2019-07-30T17:38:29Z</time>
      </trkpt>
      <trkpt lat="54.588181042866" lon="16.859439742113">
        <ele>6.4</ele>
        <time>2019-07-30T17:39:32Z</time>
      </trkpt>
      <trkpt lat="54.588137708443" lon="16.859747106386">
        <ele>6</ele>
        <time>2019-07-30T17:39:58Z</time>
      </trkpt>
      <trkpt lat="54.58809269764" lon="16.859779209063">
        <ele>6.6</ele>
        <time>2019-07-30T17:40:03Z</time>
      </trkpt>
      <trkpt lat="54.587869655281" lon="16.859979033559">
        <ele>4.4</ele>
        <time>2019-07-30T17:40:36Z</time>
      </trkpt>
      <trkpt lat="54.587758176011" lon="16.860109875018">
        <ele>1.6</ele>
        <time>2019-07-30T17:41:00Z</time>
      </trkpt>
      <trkpt lat="54.587782986435" lon="16.860178103684">
        <ele>2</ele>
        <time>2019-07-30T17:41:05Z</time>
      </trkpt>
      <trkpt lat="54.587767144644" lon="16.860148347939">
        <ele>2.6</ele>
        <time>2019-07-30T17:41:16Z</time>
      </trkpt>
      <trkpt lat="54.587818525691" lon="16.860022870896">
        <ele>0</ele>
        <time>2019-07-30T17:43:56Z</time>
      </trkpt>
      <trkpt lat="54.587870744928" lon="16.860002083784">
        <ele>0</ele>
        <time>2019-07-30T17:44:03Z</time>
      </trkpt>
      <trkpt lat="54.587980547818" lon="16.85993536386">
        <ele>1</ele>
        <time>2019-07-30T17:44:16Z</time>
      </trkpt>
      <trkpt lat="54.588032934693" lon="16.859899154052">
        <ele>2.4</ele>
        <time>2019-07-30T17:44:25Z</time>
      </trkpt>
      <trkpt lat="54.588152292949" lon="16.859836541259">
        <ele>5</ele>
        <time>2019-07-30T17:44:42Z</time>
      </trkpt>
      <trkpt lat="54.588220437796" lon="16.860003760164">
        <ele>6.6</ele>
        <time>2019-07-30T17:44:56Z</time>
      </trkpt>
      <trkpt lat="54.588268885178" lon="16.860127225551">
        <ele>5.8</ele>
        <time>2019-07-30T17:45:09Z</time>
      </trkpt>
      <trkpt lat="54.58833996369" lon="16.860118173099">
        <ele>6.6</ele>
        <time>2019-07-30T17:45:18Z</time>
      </trkpt>
      <trkpt lat="54.588390674185" lon="16.860064193663">
        <ele>5.8</ele>
        <time>2019-07-30T17:45:28Z</time>
      </trkpt>
      <trkpt lat="54.588405258691" lon="16.860024547276">
        <ele>5</ele>
        <time>2019-07-30T17:45:31Z</time>
      </trkpt>
      <trkpt lat="54.588471056606" lon="16.859899237871">
        <ele>3.8</ele>
        <time>2019-07-30T17:45:43Z</time>
      </trkpt>
      <trkpt lat="54.588556635805" lon="16.859799241804">
        <ele>6.2</ele>
        <time>2019-07-30T17:46:14Z</time>
      </trkpt>
      <trkpt lat="54.58854532024" lon="16.859732186604">
        <ele>8</ele>
        <time>2019-07-30T17:46:40Z</time>
      </trkpt>
      <trkpt lat="54.588531322467" lon="16.859528087339">
        <ele>7</ele>
        <time>2019-07-30T17:47:00Z</time>
      </trkpt>
      <trkpt lat="54.588526460965" lon="16.859419709372">
        <ele>7.6</ele>
        <time>2019-07-30T17:47:09Z</time>
      </trkpt>
      <trkpt lat="54.588398385533" lon="16.859280234556">
        <ele>13</ele>
        <time>2019-07-30T18:22:42Z</time>
      </trkpt>
      <trkpt lat="54.588139887737" lon="16.859152159124">
        <ele>3</ele>
        <time>2019-07-30T18:23:43Z</time>
      </trkpt>
      <trkpt lat="54.588125889964" lon="16.858700626171">
        <ele>7.2</ele>
        <time>2019-07-30T18:24:21Z</time>
      </trkpt>
      <trkpt lat="54.588120274091" lon="16.858480182201">
        <ele>7.6</ele>
        <time>2019-07-30T18:24:35Z</time>
      </trkpt>
      <trkpt lat="54.588126141421" lon="16.858412204992">
        <ele>7.6</ele>
        <time>2019-07-30T18:24:39Z</time>
      </trkpt>
      <trkpt lat="54.588129745638" lon="16.857964695351">
        <ele>4</ele>
        <time>2019-07-30T18:26:11Z</time>
      </trkpt>
      <trkpt lat="54.588143743411" lon="16.857809211106">
        <ele>3.2</ele>
        <time>2019-07-30T18:26:24Z</time>
      </trkpt>
      <trkpt lat="54.588121782833" lon="16.857591533163">
        <ele>3.8</ele>
        <time>2019-07-30T18:26:43Z</time>
      </trkpt>
      <trkpt lat="54.588124213584" lon="16.857558005563">
        <ele>3.2</ele>
        <time>2019-07-30T18:26:46Z</time>
      </trkpt>
      <trkpt lat="54.58817903121" lon="16.85728584527">
        <ele>0</ele>
        <time>2019-07-30T18:27:15Z</time>
      </trkpt>
      <trkpt lat="54.588217923226" lon="16.857263130321">
        <ele>0</ele>
        <time>2019-07-30T18:27:20Z</time>
      </trkpt>
      <trkpt lat="54.588283637322" lon="16.85714000021">
        <ele>0</ele>
        <time>2019-07-30T18:27:40Z</time>
      </trkpt>
      <trkpt lat="54.588294869068" lon="16.857107981352">
        <ele>0</ele>
        <time>2019-07-30T18:27:53Z</time>
      </trkpt>
      <trkpt lat="54.588262934029" lon="16.856915952023">
        <ele>0</ele>
        <time>2019-07-30T18:32:35Z</time>
      </trkpt>
      <trkpt lat="54.588274752508" lon="16.856825092227">
        <ele>0</ele>
        <time>2019-07-30T18:33:13Z</time>
      </trkpt>
      <trkpt lat="54.588260503278" lon="16.856666506679">
        <ele>0</ele>
        <time>2019-07-30T18:33:28Z</time>
      </trkpt>
      <trkpt lat="54.588084902473" lon="16.85644681708">
        <ele>0</ele>
        <time>2019-07-30T18:36:23Z</time>
      </trkpt>
      <trkpt lat="54.588287492996" lon="16.856940678628">
        <ele>2.2</ele>
        <time>2019-07-30T18:38:35Z</time>
      </trkpt>
      <trkpt lat="54.58827877582" lon="16.856835988697">
        <ele>2.4</ele>
        <time>2019-07-30T18:39:31Z</time>
      </trkpt>
      <trkpt lat="54.588136870253" lon="16.856541867826">
        <ele>1.4</ele>
        <time>2019-07-30T18:40:15Z</time>
      </trkpt>
      <trkpt lat="54.587699335073" lon="16.856741692322">
        <ele>0</ele>
        <time>2019-07-30T18:41:02Z</time>
      </trkpt>
      <trkpt lat="54.587659018134" lon="16.856698860813">
        <ele>0.8</ele>
        <time>2019-07-30T18:43:36Z</time>
      </trkpt>
      <trkpt lat="54.587805533746" lon="16.856632979079">
        <ele>3.2</ele>
        <time>2019-07-30T18:43:52Z</time>
      </trkpt>
      <trkpt lat="54.58812538705" lon="16.856529211157">
        <ele>1.8</ele>
        <time>2019-07-30T18:44:39Z</time>
      </trkpt>
      <trkpt lat="54.587906703279" lon="16.856579921652">
        <ele>0</ele>
        <time>2019-07-30T18:47:12Z</time>
      </trkpt>
      <trkpt lat="54.587928831495" lon="16.8565960149">
        <ele>1</ele>
        <time>2019-07-30T18:48:17Z</time>
      </trkpt>
      <trkpt lat="54.587720289823" lon="16.856718725916">
        <ele>0</ele>
        <time>2019-07-30T18:49:26Z</time>
      </trkpt>
      <trkpt lat="54.587316952795" lon="16.856960208455">
        <ele>0</ele>
        <time>2019-07-30T18:50:58Z</time>
      </trkpt>
      <trkpt lat="54.587067172175" lon="16.857049140414">
        <ele>0</ele>
        <time>2019-07-30T18:52:18Z</time>
      </trkpt>
      <trkpt lat="54.586997350948" lon="16.85702768275">
        <ele>0</ele>
        <time>2019-07-30T18:57:23Z</time>
      </trkpt>
      <trkpt lat="54.587162139102" lon="16.856953838211">
        <ele>0.8</ele>
        <time>2019-07-30T18:58:52Z</time>
      </trkpt>
      <trkpt lat="54.587257441305" lon="16.856943277017">
        <ele>0</ele>
        <time>2019-07-30T18:59:10Z</time>
      </trkpt>
      <trkpt lat="54.587333716595" lon="16.85687177941">
        <ele>0</ele>
        <time>2019-07-30T18:59:20Z</time>
      </trkpt>
      <trkpt lat="54.587371435145" lon="16.856837665077">
        <ele>0</ele>
        <time>2019-07-30T18:59:24Z</time>
      </trkpt>
      <trkpt lat="54.587469335737" lon="16.856781171071">
        <ele>0</ele>
        <time>2019-07-30T18:59:36Z</time>
      </trkpt>
      <trkpt lat="54.58757553441" lon="16.85669324494">
        <ele>0</ele>
        <time>2019-07-30T18:59:47Z</time>
      </trkpt>
      <trkpt lat="54.587591627658" lon="16.856675978226">
        <ele>0</ele>
        <time>2019-07-30T18:59:50Z</time>
      </trkpt>
      <trkpt lat="54.587611325123" lon="16.856667596326">
        <ele>0</ele>
        <time>2019-07-30T18:59:52Z</time>
      </trkpt>
    </trkseg>
  </trk>
</gpx>